Time;durP1;ratioP1;P1;durP2;ratioP2;P2;SDS_P1;SDS_P2;PMS_P1;PMS_P2;Temp;Humidity;BMP_temperature;BMP_pressure;BME280_temperature;BME280_humidity;BME280_pressure;Samples;Min_cycle;Max_cycle;Signal;HPM_P1;HPM_P2
2022/03/12 00:02:55;;;;;;;5.03;3.63;;;;;;;-0.46;38.80;96538.31;10411184;28;20628;-57
2022/03/12 00:07:55;;;;;;;5.53;3.53;;;;;;;-0.47;39.06;96526.34;10412257;28;20196;-58
2022/03/12 00:12:55;;;;;;;6.90;4.10;;;;;;;-0.38;38.24;96523.22;10411122;28;20266;-59
2022/03/12 00:17:56;;;;;;;7.23;4.30;;;;;;;-0.48;38.59;96518.72;10411601;28;20224;-54
2022/03/12 00:22:57;;;;;;;8.40;4.03;;;;;;;-0.41;38.13;96476.28;10411018;28;20309;-56
2022/03/12 00:27:57;;;;;;;7.83;4.30;;;;;;;-0.36;38.01;96505.94;10411181;28;20185;-55
2022/03/12 00:32:58;;;;;;;5.70;4.03;;;;;;;-0.43;38.23;96494.38;10411299;28;20232;-59
2022/03/12 00:37:58;;;;;;;5.47;3.43;;;;;;;-0.45;38.70;96503.91;10410868;28;20220;-59
2022/03/12 00:42:58;;;;;;;6.73;3.77;;;;;;;-0.46;38.57;96486.00;10410985;28;20216;-59
2022/03/12 00:47:59;;;;;;;7.67;4.17;;;;;;;-0.44;37.84;96479.84;10410101;28;20668;-59
2022/03/12 00:52:59;;;;;;;4.93;3.30;;;;;;;-0.46;37.89;96457.69;10410765;28;20710;-57
2022/03/12 00:58:00;;;;;;;8.47;3.50;;;;;;;-0.42;37.39;96469.47;10410629;28;20274;-57
2022/03/12 01:03:01;;;;;;;6.93;3.90;;;;;;;-0.46;37.25;96473.97;10410442;28;20251;-58
2022/03/12 01:08:01;;;;;;;17.67;3.20;;;;;;;-0.44;37.65;96454.13;10410576;28;20215;-58
2022/03/12 01:13:01;;;;;;;5.00;3.30;;;;;;;-0.46;37.56;96453.41;10410273;28;20257;-58
2022/03/12 01:18:02;;;;;;;11.97;5.00;;;;;;;-0.50;37.24;96428.75;10418538;28;20192;-58
2022/03/12 01:23:04;;;;;;;8.17;2.87;;;;;;;-0.57;38.04;96463.50;10418112;28;20204;-57
2022/03/12 01:28:08;;;;;;;4.17;2.63;;;;;;;-0.55;37.99;96464.25;10417775;28;20306;-57
2022/03/12 01:33:08;;;;;;;9.30;4.03;;;;;;;-0.59;38.05;96461.03;10446367;23;20264;-53
2022/03/12 01:38:09;;;;;;;8.00;3.70;;;;;;;-0.57;37.42;96432.63;10417431;28;20732;-54
2022/03/12 01:43:09;;;;;;;6.50;3.87;;;;;;;-0.63;38.03;96449.28;10417517;28;20308;-56
2022/03/12 01:48:09;;;;;;;5.97;3.30;;;;;;;-0.62;38.05;96468.13;10417038;28;20232;-57
2022/03/12 01:53:10;;;;;;;4.77;2.67;;;;;;;-0.74;38.07;96454.25;10417331;28;20721;-53
2022/03/12 01:58:11;;;;;;;7.03;3.47;;;;;;;-0.77;38.54;96462.97;10417082;28;20718;-53
2022/03/12 02:03:13;;;;;;;8.93;3.23;;;;;;;-0.53;36.96;96405.00;10416142;28;20212;-53
2022/03/12 02:08:14;;;;;;;6.03;2.63;;;;;;;-0.45;36.19;96419.00;10416603;28;20981;-54
2022/03/12 02:13:15;;;;;;;4.00;2.47;;;;;;;-0.52;36.79;96396.31;10416226;28;20591;-54
2022/03/12 02:18:15;;;;;;;5.10;2.77;;;;;;;-0.57;37.17;96401.75;10416622;28;20191;-55
2022/03/12 02:23:16;;;;;;;6.37;2.73;;;;;;;-0.52;36.79;96394.59;10415823;28;20212;-54
2022/03/12 02:28:18;;;;;;;4.93;2.77;;;;;;;-0.65;37.38;96416.84;10414977;28;20212;-54
2022/03/12 02:33:27;;;;;;;3.63;2.70;;;;;;;-0.56;36.64;96388.00;10415619;28;20327;-53
2022/03/12 02:38:28;;;;;;;6.40;2.70;;;;;;;-0.61;36.23;96385.69;10415509;28;20192;-53
2022/03/12 02:43:31;;;;;;;3.73;2.40;;;;;;;-0.50;36.27;96389.34;10414893;28;20223;-54
2022/03/12 02:48:32;;;;;;;5.13;2.83;;;;;;;-0.57;35.92;96392.31;10415259;28;20244;-54
2022/03/12 02:53:33;;;;;;;2.70;2.27;;;;;;;-0.58;36.37;96390.66;10414926;28;20683;-57
2022/03/12 02:58:33;;;;;;;5.10;3.10;;;;;;;-0.59;36.03;96395.91;10414951;28;20192;-55
2022/03/12 03:03:36;;;;;;;2.50;2.23;;;;;;;-0.61;36.60;96398.56;10414087;28;20216;-52
2022/03/12 03:08:39;;;;;;;4.10;3.17;;;;;;;-0.60;36.12;96415.66;10413916;28;20216;-56
2022/03/12 03:13:42;;;;;;;3.10;1.80;;;;;;;-0.72;36.73;96406.09;10413524;28;20587;-56
2022/03/12 03:18:50;;;;;;;4.97;3.50;;;;;;;-0.68;36.46;96391.31;10414075;28;20189;-56
2022/03/12 03:23:53;;;;;;;6.03;3.13;;;;;;;-0.69;36.18;96392.22;10413433;28;20214;-54
2022/03/12 03:28:53;;;;;;;3.37;2.70;;;;;;;-0.69;36.47;96400.75;10412469;28;20213;-56
2022/03/12 03:33:53;;;;;;;5.00;2.90;;;;;;;-0.68;35.69;96365.59;10413004;28;20283;-53
2022/03/12 03:38:54;;;;;;;7.73;2.80;;;;;;;-0.62;35.87;96339.50;10413182;28;20809;-54
2022/03/12 03:43:55;;;;;;;4.70;2.70;;;;;;;-0.51;35.23;96341.38;10412254;28;20287;-54
2022/03/12 03:48:57;;;;;;;3.53;2.73;;;;;;;-0.66;35.45;96346.59;10412588;28;20604;-55
2022/03/12 03:53:57;;;;;;;6.00;2.87;;;;;;;-0.44;33.84;96316.94;10412559;28;20298;-56
2022/03/12 03:58:57;;;;;;;5.53;3.73;;;;;;;-0.45;33.62;96318.66;10412281;28;20181;-55
2022/03/12 04:03:58;;;;;;;3.83;1.97;;;;;;;-0.65;34.60;96322.50;10411809;28;20365;-53
2022/03/12 04:08:58;;;;;;;5.10;2.73;;;;;;;-0.59;34.18;96308.44;10411876;28;20224;-53
2022/03/12 04:13:59;;;;;;;3.23;2.73;;;;;;;-0.61;33.91;96312.84;10411785;28;20651;-54
2022/03/12 04:19:01;;;;;;;4.57;2.03;;;;;;;-0.65;34.27;96343.06;10411742;28;20189;-53
2022/03/12 04:24:01;;;;;;;3.03;2.40;;;;;;;-0.64;34.07;96328.47;10411365;28;20742;-53
2022/03/12 04:29:06;;;;;;;6.47;2.90;;;;;;;-0.83;34.60;96355.31;10411554;28;20312;-54
2022/03/12 04:34:07;;;;;;;5.37;3.00;;;;;;;-0.91;35.27;96337.81;10410821;28;20705;-53
2022/03/12 04:39:09;;;;;;;6.93;3.20;;;;;;;-1.01;35.84;96348.75;10411367;28;20224;-53
2022/03/12 04:44:09;;;;;;;4.87;2.77;;;;;;;-0.98;35.68;96328.00;10410335;28;20220;-53
2022/03/12 04:49:10;;;;;;;5.73;2.50;;;;;;;-1.18;36.89;96363.47;10410364;28;20232;-55
2022/03/12 04:54:10;;;;;;;8.97;3.40;;;;;;;-1.18;36.29;96342.06;10410875;28;20219;-53
2022/03/12 04:59:12;;;;;;;6.33;3.70;;;;;;;-1.29;37.06;96361.56;10410788;28;20188;-55
2022/03/12 05:04:13;;;;;;;10.33;3.03;;;;;;;-1.19;36.54;96355.84;10410618;28;20219;-54
2022/03/12 05:09:13;;;;;;;6.07;3.60;;;;;;;-1.22;36.06;96349.16;10410542;28;20232;-55
2022/03/12 05:14:16;;;;;;;4.73;2.63;;;;;;;-1.16;35.90;96340.25;10410597;28;20216;-55
2022/03/12 05:19:17;;;;;;;8.17;3.57;;;;;;;-1.13;36.00;96322.06;10410571;28;20714;-54
2022/03/12 05:24:18;;;;;;;4.13;2.90;;;;;;;-1.22;35.92;96325.22;10410194;28;20216;-54
2022/03/12 05:29:18;;;;;;;5.83;3.33;;;;;;;-1.20;36.37;96357.59;10410401;28;20323;-56
2022/03/12 05:34:22;;;;;;;8.80;3.20;;;;;;;-1.10;35.57;96327.84;10409857;28;20240;-53
2022/03/12 05:39:24;;;;;;;4.30;1.87;;;;;;;-0.90;34.39;96312.94;10410201;28;20192;-53
2022/03/12 05:44:26;;;;;;;8.63;3.53;;;;;;;-0.93;35.00;96306.22;10409662;28;20216;-54
2022/03/12 05:49:27;;;;;;;7.10;3.53;;;;;;;-0.96;34.40;96296.13;10409537;28;20605;-57
2022/03/12 05:54:28;;;;;;;4.23;2.50;;;;;;;-0.87;34.87;96310.16;10410012;28;20231;-53
2022/03/12 05:59:29;;;;;;;5.20;3.30;;;;;;;-0.77;33.72;96298.38;10409885;28;20193;-54
2022/03/12 06:04:29;;;;;;;5.47;3.53;;;;;;;-0.62;33.59;96277.75;10416562;28;20695;-55
2022/03/12 06:09:30;;;;;;;3.67;3.00;;;;;;;-0.70;33.92;96306.53;10416778;28;20642;-53
2022/03/12 06:14:31;;;;;;;5.17;2.93;;;;;;;-0.61;33.79;96303.38;10416602;28;20634;-54
2022/03/12 06:19:31;;;;;;;8.53;2.97;;;;;;;-0.60;33.57;96306.78;10416702;28;20667;-53
2022/03/12 06:24:31;;;;;;;4.17;2.90;;;;;;;-0.71;34.62;96315.16;10416078;28;20210;-53
2022/03/12 06:29:32;;;;;;;3.53;2.07;;;;;;;-0.60;34.67;96310.19;10416053;28;20231;-54
2022/03/12 06:34:34;;;;;;;8.83;3.23;;;;;;;-0.41;34.03;96317.53;10415738;28;20268;-55
2022/03/12 06:39:35;;;;;;;4.33;3.10;;;;;;;-0.02;33.65;96326.16;10415803;28;20204;-54
2022/03/12 06:44:37;;;;;;;2.57;2.37;;;;;;;0.14;34.40;96366.38;10415130;28;20213;-54
2022/03/12 06:49:38;;;;;;;4.57;2.60;;;;;;;0.40;33.74;96353.50;10415475;28;20192;-56
2022/03/12 06:54:39;;;;;;;4.40;2.83;;;;;;;0.38;34.15;96374.22;10415072;28;20291;-54
2022/03/12 06:59:39;;;;;;;6.40;3.23;;;;;;;0.48;33.78;96377.84;10414878;28;20280;-53
2022/03/12 07:04:41;;;;;;;5.90;3.90;;;;;;;0.47;33.11;96327.22;10413362;28;20216;-55
2022/03/12 07:09:42;;;;;;;8.43;3.50;;;;;;;0.91;32.57;96352.69;10408012;28;20200;-53
2022/03/12 07:14:42;;;;;;;6.53;3.20;;;;;;;0.97;32.09;96337.59;10413998;28;20255;-57
2022/03/12 07:19:43;;;;;;;4.53;2.87;;;;;;;1.24;32.12;96340.00;10414174;28;20188;-56
2022/03/12 07:24:43;;;;;;;6.43;2.50;;;;;;;1.16;31.90;96334.53;10413970;28;20219;-54
2022/03/12 07:29:43;;;;;;;7.77;4.03;;;;;;;1.28;31.86;96347.53;10413828;28;20196;-55
2022/03/12 07:34:46;;;;;;;3.30;2.70;;;;;;;1.38;31.68;96348.53;10419441;22;20310;-57
2022/03/12 07:39:47;;;;;;;3.17;2.30;;;;;;;1.52;31.20;96322.56;10372587;28;20279;-56
2022/03/12 07:44:48;;;;;;;4.93;2.73;;;;;;;1.66;30.95;96336.25;10371772;28;20226;-54
2022/03/12 07:49:48;;;;;;;10.13;3.20;;;;;;;1.88;30.66;96333.72;10372137;28;20207;-53
2022/03/12 07:54:49;;;;;;;4.80;3.20;;;;;;;1.69;31.24;96347.16;10372014;28;20711;-59
2022/03/12 07:59:49;;;;;;;5.20;3.00;;;;;;;1.74;30.95;96346.81;10370093;28;20698;-60
2022/03/12 08:04:50;;;;;;;7.80;3.13;;;;;;;2.10;29.83;96343.31;10371443;28;20217;-58
2022/03/12 08:09:55;;;;;;;5.50;3.27;;;;;;;2.18;30.18;96339.34;10371321;28;20271;-58
2022/03/12 08:14:57;;;;;;;17.27;7.97;;;;;;;2.37;30.04;96318.13;10371256;28;20213;-59
2022/03/12 08:19:58;;;;;;;13.03;6.63;;;;;;;2.53;29.90;96356.56;10371009;28;20211;-58
2022/03/12 08:24:58;;;;;;;12.83;6.37;;;;;;;2.67;29.91;96346.81;10370169;28;20320;-60
2022/03/12 08:29:59;;;;;;;14.40;6.30;;;;;;;2.87;30.07;96352.25;10371140;28;20289;-57
2022/03/12 08:34:59;;;;;;;13.27;8.37;;;;;;;3.02;28.88;96334.72;10370812;28;20711;-60
2022/03/12 08:40:06;;;;;;;4.03;2.63;;;;;;;3.25;28.59;96316.56;10370811;28;20287;-58
2022/03/12 08:45:08;;;;;;;5.43;3.00;;;;;;;3.66;27.84;96294.31;10369995;28;20225;-59
2022/03/12 08:50:08;;;;;;;4.07;2.67;;;;;;;4.02;28.20;96307.81;10370504;28;20193;-60
2022/03/12 08:55:10;;;;;;;6.17;2.40;;;;;;;3.83;27.02;96223.81;10369996;28;20209;-58
2022/03/12 09:00:12;;;;;;;3.00;2.40;;;;;;;4.17;27.49;96316.94;10370227;28;20280;-59
2022/03/12 09:05:13;;;;;;;3.57;2.53;;;;;;;4.15;27.13;96269.59;10369899;28;20221;-59
2022/03/12 09:10:13;;;;;;;8.47;3.10;;;;;;;4.20;26.42;96254.44;10370025;28;20285;-58
2022/03/12 09:15:14;;;;;;;4.83;2.63;;;;;;;4.74;26.69;96288.81;10369859;28;20640;-57
2022/03/12 09:20:14;;;;;;;7.30;2.77;;;;;;;4.41;27.04;96279.53;10369813;28;20615;-58
2022/03/12 09:25:15;;;;;;;9.30;3.47;;;;;;;4.56;26.90;96293.78;10386304;28;20227;-56
2022/03/12 09:30:15;;;;;;;3.77;2.57;;;;;;;5.40;27.12;96375.00;10409934;28;20192;-57
2022/03/12 09:35:16;;;;;;;6.93;3.37;;;;;;;5.66;24.63;96242.78;10389280;28;20229;-53
2022/03/12 09:40:16;;;;;;;3.30;2.50;;;;;;;5.17;24.67;96203.81;10397096;28;20602;-58
2022/03/12 09:45:16;;;;;;;3.57;2.23;;;;;;;6.19;23.74;96228.53;10393324;28;20224;-59
2022/03/12 09:50:17;;;;;;;3.60;2.30;;;;;;;6.75;23.66;96224.19;10392870;28;20196;-58
2022/03/12 09:55:19;;;;;;;5.07;2.93;;;;;;;6.29;24.38;96280.53;10393620;28;20248;-57
2022/03/12 10:00:19;;;;;;;4.80;3.33;;;;;;;6.42;23.88;96260.22;10366299;28;20216;-56
2022/03/12 10:05:20;;;;;;;4.10;2.93;;;;;;;7.38;23.33;96290.31;10388972;28;20283;-59
2022/03/12 10:10:22;;;;;;;6.20;2.90;;;;;;;7.44;23.31;96295.78;10374950;28;20540;-55
2022/03/12 10:15:22;;;;;;;4.97;3.17;;;;;;;7.39;23.64;96284.97;10374660;28;20213;-58
2022/03/12 10:20:22;;;;;;;4.50;2.87;;;;;;;8.69;22.96;96314.09;10374759;28;20193;-58
2022/03/12 10:25:23;;;;;;;5.30;2.87;;;;;;;7.07;24.15;96314.09;10374204;28;20232;-57
2022/03/12 10:30:25;;;;;;;3.67;2.60;;;;;;;7.19;24.46;96304.31;10373630;28;20201;-58
2022/03/12 10:35:25;;;;;;;7.27;3.23;;;;;;;7.04;24.20;96311.78;10371937;28;20237;-59
2022/03/12 10:40:25;;;;;;;7.70;3.20;;;;;;;7.83;24.13;96334.63;10373980;28;20576;-59
2022/03/12 10:45:31;;;;;;;5.43;2.97;;;;;;;7.83;24.37;96347.66;10372873;28;20760;-59
2022/03/12 10:50:36;;;;;;;4.87;3.20;;;;;;;7.91;23.78;96341.69;10373127;28;20197;-59
2022/03/12 10:55:40;;;;;;;3.83;2.20;;;;;;;7.40;23.65;96304.88;10372543;28;20209;-59
2022/03/12 11:00:52;;;;;;;6.93;3.70;;;;;;;8.55;23.76;96344.19;10378893;28;20796;-60
2022/03/12 11:05:54;;;;;;;6.43;3.40;;;;;;;8.42;24.40;96364.63;10407198;28;21027;-60
2022/03/12 11:10:59;;;;;;;6.20;3.10;;;;;;;8.81;23.65;96365.09;10382087;28;20194;-59
2022/03/12 11:16:16;;;;;;;5.43;3.17;;;;;;;8.75;24.41;96407.50;10403690;28;20210;-57
2022/03/12 11:21:40;;;;;;;6.97;3.77;;;;;;;8.38;24.38;96424.16;10413992;28;20307;-58
2022/03/12 11:27:01;;;;;;;6.47;3.90;;;;;;;9.39;25.71;96494.31;10413250;28;20216;-60
2022/03/12 11:32:09;;;;;;;9.20;3.93;;;;;;;8.95;25.34;96449.09;10413200;28;20279;-60
2022/03/12 11:37:13;;;;;;;8.33;5.27;;;;;;;8.32;24.44;96383.00;10412802;28;20294;-56
2022/03/12 11:42:19;;;;;;;4.37;3.10;;;;;;;8.47;26.45;96478.09;10413135;28;20278;-57
2022/03/12 11:47:21;;;;;;;5.37;2.47;;;;;;;8.53;25.17;96403.56;10412320;28;20699;-58
2022/03/12 11:52:21;;;;;;;7.03;3.60;;;;;;;8.57;25.40;96446.69;10412337;28;20189;-57
2022/03/12 11:57:30;;;;;;;5.93;3.20;;;;;;;9.32;25.00;96451.44;10358062;28;20224;-59
2022/03/12 12:02:32;;;;;;;10.10;4.07;;;;;;;9.34;25.48;96472.19;10371095;28;20225;-58
2022/03/12 12:07:36;;;;;;;6.20;3.40;;;;;;;9.90;24.14;96425.53;10353626;28;20236;-59
2022/03/12 12:12:36;;;;;;;9.30;3.97;;;;;;;9.20;24.86;96400.41;10370792;28;20190;-58
2022/03/12 12:17:37;;;;;;;5.13;3.33;;;;;;;9.57;25.16;96452.41;10363313;28;20200;-57
2022/03/12 12:22:38;;;;;;;4.17;2.90;;;;;;;9.25;25.14;96432.97;10395595;28;20189;-59
2022/03/12 12:27:45;;;;;;;7.50;3.90;;;;;;;9.55;24.56;96417.72;10410839;28;20228;-61
2022/03/12 12:32:49;;;;;;;7.20;3.67;;;;;;;8.91;25.22;96438.13;10410898;28;20740;-60
2022/03/12 12:37:57;;;;;;;5.50;3.50;;;;;;;9.64;24.62;96418.59;10411036;28;20216;-56
2022/03/12 12:43:07;;;;;;;16.20;4.10;;;;;;;9.88;24.88;96440.59;10410858;28;20311;-58
2022/03/12 12:48:16;;;;;;;5.90;3.43;;;;;;;10.04;23.99;96400.56;10410165;28;20706;-60
2022/03/12 12:53:27;;;;;;;8.90;3.97;;;;;;;9.06;25.18;96420.09;10410590;28;20706;-60
2022/03/12 12:58:53;;;;;;;8.77;3.70;;;;;;;9.20;25.01;96387.34;10410327;28;20200;-60
2022/03/12 13:03:54;;;;;;;6.77;3.87;;;;;;;9.59;24.81;96416.44;10372309;28;20247;-60
2022/03/12 13:08:57;;;;;;;6.97;3.60;;;;;;;10.23;24.90;96428.22;10410506;28;20226;-60
2022/03/12 13:14:00;;;;;;;5.97;3.83;;;;;;;9.62;24.09;96358.59;10401294;28;20236;-60
2022/03/12 13:19:01;;;;;;;6.23;3.93;;;;;;;11.04;24.08;96451.03;10397871;28;20319;-57
2022/03/12 13:24:07;;;;;;;6.13;4.23;;;;;;;10.35;24.34;96411.25;10396272;28;20244;-62
2022/03/12 13:29:08;;;;;;;6.57;3.70;;;;;;;9.55;24.61;96375.06;10381314;28;20216;-62
2022/03/12 13:34:15;;;;;;;5.93;4.10;;;;;;;10.29;24.70;96423.19;10407566;28;20311;-61
2022/03/12 13:39:16;;;;;;;8.37;4.47;;;;;;;12.01;24.35;96457.19;10394730;28;20656;-61
2022/03/12 13:44:19;;;;;;;7.20;4.17;;;;;;;11.51;23.80;96404.03;10393632;28;20209;-61
2022/03/12 13:49:21;;;;;;;5.60;3.43;;;;;;;10.06;24.25;96354.09;10380568;28;20314;-62
2022/03/12 13:54:23;;;;;;;6.80;4.07;;;;;;;11.11;24.70;96417.09;10376066;28;20576;-63
2022/03/12 13:59:35;;;;;;;7.90;4.23;;;;;;;10.55;24.41;96388.19;10407852;22;20241;-61
2022/03/12 14:04:36;;;;;;;6.23;3.90;;;;;;;9.28;24.81;96349.00;10416603;28;20185;-61
2022/03/12 14:09:36;;;;;;;8.13;4.00;;;;;;;11.47;25.48;96479.66;10416439;28;20225;-60
2022/03/12 14:14:36;;;;;;;7.73;4.70;;;;;;;11.33;24.90;96441.81;10416251;28;20687;-59
2022/03/12 14:19:37;;;;;;;6.00;3.63;;;;;;;10.87;24.16;96382.09;10416051;28;20763;-57
2022/03/12 14:24:40;;;;;;;6.45;3.97;;;;;;;12.45;23.26;96435.56;10414715;28;20687;-59
2022/03/12 14:29:43;;;;;;;6.45;4.22;;;;;;;11.19;23.31;96340.22;10415410;28;20244;-60
2022/03/12 14:34:44;;;;;;;6.83;4.60;;;;;;;11.58;23.87;96405.81;10415304;28;20242;-59
2022/03/12 14:39:44;;;;;;;8.17;4.03;;;;;;;10.05;24.30;96355.91;10415487;28;20251;-56
2022/03/12 14:44:45;;;;;;;8.33;4.17;;;;;;;11.24;25.14;96438.38;10414421;28;20284;-55
2022/03/12 14:49:52;;;;;;;10.77;4.77;;;;;;;10.74;23.78;96326.75;10414985;28;20220;-55
2022/03/12 14:54:55;;;;;;;7.53;3.77;;;;;;;10.46;24.01;96335.00;10416210;28;20192;-55
2022/03/12 14:59:56;;;;;;;6.33;3.60;;;;;;;9.57;24.86;96303.34;10431260;28;20232;-57
2022/03/12 15:04:58;;;;;;;7.23;4.53;;;;;;;10.48;24.43;96334.84;10431961;28;20204;-56
2022/03/12 15:10:06;;;;;;;11.67;4.57;;;;;;;11.55;23.97;96351.06;10432243;28;20282;-54
2022/03/12 15:15:31;;;;;;;10.30;3.93;;;;;;;10.30;23.71;96286.03;10434952;28;20188;-56
2022/03/12 15:20:33;;;;;;;8.57;4.10;;;;;;;12.19;22.69;96338.72;10429226;28;20213;-58
2022/03/12 15:25:38;;;;;;;5.40;3.57;;;;;;;10.59;24.44;96346.75;10450291;28;20701;-60
2022/03/12 15:30:41;;;;;;;9.20;4.50;;;;;;;11.43;23.68;96349.81;10454194;28;20220;-59
2022/03/12 15:35:44;;;;;;;11.23;4.23;;;;;;;10.70;23.95;96356.91;10454087;28;20195;-59
2022/03/12 15:40:45;;;;;;;5.53;3.63;;;;;;;9.93;24.86;96342.31;10454260;28;20714;-59
2022/03/12 15:45:45;;;;;;;8.67;5.17;;;;;;;10.82;23.39;96323.31;10453825;28;20211;-57
2022/03/12 15:50:46;;;;;;;11.77;4.60;;;;;;;10.52;24.59;96333.50;10454405;28;20612;-55
2022/03/12 15:55:49;;;;;;;6.67;3.97;;;;;;;11.87;23.60;96359.75;10453708;28;20294;-59
2022/03/12 16:00:55;;;;;;;7.20;4.50;;;;;;;11.14;23.94;96345.19;10453577;28;20239;-61
2022/03/12 16:05:57;;;;;;;6.70;3.73;;;;;;;10.09;23.99;96310.09;10453621;28;20216;-61
2022/03/12 16:10:57;;;;;;;78.70;31.23;;;;;;;7.78;26.77;96330.81;10453385;28;20218;-56
2022/03/12 16:15:59;;;;;;;8.37;4.47;;;;;;;6.84;27.39;96301.44;10453498;28;20211;-56
2022/03/12 16:21:01;;;;;;;8.30;4.13;;;;;;;6.59;28.55;96340.16;10452855;28;20712;-58
2022/03/12 16:26:04;;;;;;;12.57;4.53;;;;;;;6.10;28.31;96331.59;10452838;28;20715;-55
2022/03/12 16:31:06;;;;;;;9.07;4.53;;;;;;;5.90;30.10;96395.75;10452677;28;20790;-55
2022/03/12 16:36:07;;;;;;;8.20;4.37;;;;;;;5.56;29.75;96367.53;10452633;28;20285;-56
2022/03/12 16:41:07;;;;;;;7.30;3.40;;;;;;;5.41;29.36;96361.88;10452154;28;20289;-57
2022/03/12 16:46:08;;;;;;;9.13;4.80;;;;;;;5.11;30.38;96388.69;10451059;28;20243;-56
2022/03/12 16:51:08;;;;;;;9.23;4.20;;;;;;;5.03;30.67;96386.75;10451691;28;20284;-56
2022/03/12 16:56:09;;;;;;;8.20;4.33;;;;;;;4.85;30.66;96389.13;10451665;28;20192;-55
2022/03/12 17:01:10;;;;;;;11.57;4.90;;;;;;;4.67;31.34;96421.78;10451402;28;20239;-57
2022/03/12 17:06:10;;;;;;;8.80;3.70;;;;;;;4.49;30.81;96377.44;10451446;28;20292;-55
2022/03/12 17:11:13;;;;;;;21.00;7.90;;;;;;;4.33;31.47;96372.72;10451110;28;20656;-57
2022/03/12 17:16:15;;;;;;;10.47;6.07;;;;;;;4.16;30.89;96346.38;10451316;28;20631;-56
2022/03/12 17:21:15;;;;;;;9.07;4.20;;;;;;;4.06;31.56;96361.06;10450948;28;20219;-57
2022/03/12 17:26:26;;;;;;;10.73;4.70;;;;;;;4.00;31.41;96356.38;10451324;28;20223;-56
2022/03/12 17:31:27;;;;;;;9.23;3.37;;;;;;;4.01;30.87;96334.69;10450848;28;20216;-56
2022/03/12 17:36:27;;;;;;;7.90;4.47;;;;;;;4.04;31.03;96352.56;10451420;28;20664;-55
2022/03/12 17:41:30;;;;;;;14.00;5.57;;;;;;;3.89;31.63;96342.50;10450888;28;20294;-55
2022/03/12 17:46:30;;;;;;;5.87;3.23;;;;;;;3.77;30.97;96338.31;10450363;28;20208;-56
2022/03/12 17:51:31;;;;;;;7.07;3.33;;;;;;;3.72;30.95;96317.13;10444477;28;20212;-57
2022/03/12 17:56:32;;;;;;;11.23;3.70;;;;;;;3.75;30.33;96303.94;10419933;28;20184;-58
2022/03/12 18:01:33;;;;;;;6.43;3.23;;;;;;;3.67;30.45;96299.38;10416986;28;20235;-58
2022/03/12 18:06:35;;;;;;;5.77;3.07;;;;;;;3.68;30.49;96289.84;10434130;28;20216;-59
2022/03/12 18:11:35;;;;;;;8.93;4.27;;;;;;;3.65;30.39;96274.56;10444579;28;20266;-58
2022/03/12 18:16:36;;;;;;;6.93;3.90;;;;;;;3.62;29.84;96267.03;10436197;28;20212;-58
2022/03/12 18:21:36;;;;;;;8.07;3.07;;;;;;;3.57;30.33;96277.75;10422520;28;20217;-57
2022/03/12 18:26:39;;;;;;;4.07;3.13;;;;;;;3.54;30.20;96278.81;10416180;28;20220;-60
2022/03/12 18:31:41;;;;;;;8.73;3.50;;;;;;;3.45;30.65;96270.97;10415615;28;20213;-57
2022/03/12 18:36:42;;;;;;;5.17;2.83;;;;;;;3.52;29.82;96247.06;10415893;28;20181;-56
2022/03/12 18:41:43;;;;;;;6.40;3.23;;;;;;;3.35;30.46;96258.78;10415395;28;20299;-56
2022/03/12 18:46:44;;;;;;;6.83;4.03;;;;;;;3.37;30.07;96267.22;10421829;28;20694;-56
2022/03/12 18:51:44;;;;;;;10.23;3.07;;;;;;;3.43;30.37;96252.97;10450348;28;20208;-57
2022/03/12 18:56:44;;;;;;;6.17;3.73;;;;;;;3.23;31.26;96290.78;10455881;28;20198;-55
2022/03/12 19:01:45;;;;;;;9.63;3.87;;;;;;;3.18;30.62;96303.28;10449767;28;20260;-59
2022/03/12 19:06:46;;;;;;;6.33;3.53;;;;;;;3.09;30.89;96289.28;10433291;28;20216;-60
2022/03/12 19:11:49;;;;;;;6.30;3.27;;;;;;;3.10;30.69;96292.72;10433512;28;20581;-58
2022/03/12 19:16:52;;;;;;;4.97;3.53;;;;;;;3.00;31.07;96279.66;10440676;28;20241;-56
2022/03/12 19:21:52;;;;;;;8.50;4.30;;;;;;;2.87;32.22;96310.03;10454556;28;20208;-57
2022/03/12 19:26:54;;;;;;;9.30;4.00;;;;;;;2.99;31.49;96294.38;10454835;28;20227;-58
2022/03/12 19:31:54;;;;;;;4.83;2.63;;;;;;;2.86;32.01;96293.69;10454548;28;20227;-56
2022/03/12 19:36:54;;;;;;;9.10;4.57;;;;;;;2.79;32.36;96308.03;10454506;28;20220;-58
2022/03/12 19:41:55;;;;;;;6.87;3.40;;;;;;;2.65;32.48;96316.88;10454287;28;20713;-54
2022/03/12 19:46:56;;;;;;;7.47;4.03;;;;;;;2.49;33.07;96312.84;10453585;28;20307;-56
2022/03/12 19:51:58;;;;;;;5.57;3.33;;;;;;;2.31;33.64;96353.84;10453792;28;20319;-56
2022/03/12 19:56:59;;;;;;;7.67;4.23;;;;;;;2.21;33.89;96349.47;10453542;28;20197;-54
2022/03/12 20:01:59;;;;;;;5.27;3.57;;;;;;;2.24;33.97;96375.09;10453305;28;20594;-56
2022/03/12 20:07:03;;;;;;;8.83;4.43;;;;;;;2.21;34.13;96363.19;10453216;28;20220;-55
2022/03/12 20:12:07;;;;;;;10.23;4.07;;;;;;;2.29;33.95;96349.72;10452833;28;20706;-55
2022/03/12 20:17:07;;;;;;;7.03;3.80;;;;;;;2.19;33.84;96354.75;10453139;28;20252;-54
2022/03/12 20:22:08;;;;;;;5.13;3.20;;;;;;;2.05;34.38;96371.25;10451335;28;20212;-59
2022/03/12 20:27:09;;;;;;;8.90;4.00;;;;;;;1.96;34.39;96364.16;10452753;28;20219;-56
2022/03/12 20:32:10;;;;;;;5.67;3.43;;;;;;;1.96;34.50;96349.50;10452390;28;20686;-56
2022/03/12 20:37:14;;;;;;;4.83;3.13;;;;;;;1.91;34.52;96354.16;10452301;28;20676;-55
2022/03/12 20:42:14;;;;;;;13.50;4.53;;;;;;;1.82;34.93;96367.75;10452037;28;20261;-57
2022/03/12 20:47:15;;;;;;;5.30;3.13;;;;;;;1.81;34.90;96367.84;10451183;28;20222;-55
2022/03/12 20:52:15;;;;;;;11.77;4.00;;;;;;;1.77;34.75;96365.50;10362918;22;20237;-59
2022/03/12 20:57:18;;;;;;;9.63;4.97;;;;;;;1.65;35.26;96360.41;10328943;28;20325;-60
2022/03/12 21:02:18;;;;;;;6.23;3.63;;;;;;;1.58;35.51;96360.03;10329028;28;20216;-60
2022/03/12 21:07:19;;;;;;;9.33;4.90;;;;;;;1.51;35.68;96371.72;10328839;28;20597;-58
2022/03/12 21:12:19;;;;;;;6.30;4.30;;;;;;;1.50;35.41;96370.06;10336649;28;20261;-57
2022/03/12 21:17:20;;;;;;;6.20;3.80;;;;;;;1.41;35.89;96363.81;10346092;28;20192;-58
2022/03/12 21:22:20;;;;;;;6.00;3.60;;;;;;;1.40;36.08;96357.81;10345956;28;20215;-59
2022/03/12 21:27:20;;;;;;;8.40;4.37;;;;;;;1.46;35.73;96353.16;10338829;28;20301;-60
2022/03/12 21:32:22;;;;;;;6.30;3.77;;;;;;;1.42;35.81;96373.19;10332856;28;20294;-57
2022/03/12 21:37:24;;;;;;;6.37;3.27;;;;;;;1.42;35.59;96355.97;10336821;28;20265;-56
2022/03/12 21:42:26;;;;;;;6.40;3.50;;;;;;;1.32;36.06;96374.78;10336639;28;20214;-59
2022/03/12 21:47:27;;;;;;;9.40;4.83;;;;;;;1.28;36.22;96356.09;10336117;28;20344;-61
2022/03/12 21:52:28;;;;;;;4.73;2.63;;;;;;;1.20;36.42;96363.56;10336293;28;20236;-59
2022/03/12 21:57:28;;;;;;;9.10;4.70;;;;;;;1.25;36.13;96362.28;10336167;28;20200;-60
2022/03/12 22:02:28;;;;;;;6.97;4.23;;;;;;;1.28;36.05;96363.00;10335938;28;20212;-57
2022/03/12 22:07:29;;;;;;;6.77;3.93;;;;;;;1.12;36.69;96374.41;10335299;28;20224;-60
2022/03/12 22:12:29;;;;;;;10.30;4.33;;;;;;;1.13;36.71;96376.03;10335487;28;20218;-60
2022/03/12 22:17:29;;;;;;;10.67;5.70;;;;;;;1.20;36.42;96368.72;10335590;28;20219;-59
2022/03/12 22:22:32;;;;;;;10.37;4.10;;;;;;;1.22;36.13;96362.50;10335216;28;20295;-58
2022/03/12 22:27:34;;;;;;;10.23;2.83;;;;;;;1.37;35.68;96352.03;10335485;28;20712;-60
2022/03/12 22:32:34;;;;;;;11.90;4.47;;;;;;;1.41;35.78;96362.03;10334730;28;20586;-60
2022/03/12 22:37:36;;;;;;;7.03;3.63;;;;;;;1.43;35.32;96339.50;10334680;28;20675;-60
2022/03/12 22:42:40;;;;;;;5.07;3.60;;;;;;;1.50;35.16;96339.91;10333501;28;20221;-59
2022/03/12 22:47:42;;;;;;;7.37;3.77;;;;;;;1.62;34.93;96335.63;10334029;28;20213;-60
2022/03/12 22:52:44;;;;;;;7.20;2.50;;;;;;;1.54;35.05;96336.16;10334286;28;20245;-59
2022/03/12 22:57:45;;;;;;;13.30;3.27;;;;;;;1.62;34.43;96317.53;10333897;28;20244;-58
2022/03/12 23:02:46;;;;;;;8.90;4.47;;;;;;;1.46;35.16;96341.06;10333559;28;20197;-60
2022/03/12 23:13:07;;;;;;;6.10;3.53;;;;;;;0.96;36.49;96371.22;10333062;28;20205;-56
2022/03/12 23:18:07;;;;;;;7.67;3.90;;;;;;;0.76;37.19;96377.75;10332666;28;20290;-56
2022/03/12 23:23:09;;;;;;;6.77;4.43;;;;;;;1.24;35.40;96327.09;10332727;28;20201;-59
2022/03/12 23:28:11;;;;;;;11.53;4.77;;;;;;;0.93;37.86;96416.09;10332153;28;20228;-58
2022/03/12 23:33:12;;;;;;;9.87;4.73;;;;;;;0.97;36.26;96360.81;10332151;28;20193;-58
2022/03/12 23:38:16;;;;;;;9.63;5.07;;;;;;;0.34;39.15;96420.00;10331748;28;20686;-55